createdAt,value
2019-02-22T00:02:18.091Z,8.37
2019-02-22T00:04:47.036Z,8.30
2019-02-22T00:07:15.699Z,8.37
2019-02-22T00:09:49.461Z,8.37
2019-02-22T00:12:14.766Z,8.32
2019-02-22T00:14:43.724Z,8.35
2019-02-22T00:17:12.765Z,8.37
2019-02-22T00:19:41.423Z,8.32
2019-02-22T00:22:10.634Z,8.35
2019-02-22T00:24:39.303Z,8.36
2019-02-22T00:27:08.318Z,8.36
2019-02-22T00:29:37.352Z,8.39
2019-02-22T00:32:06.092Z,8.30
2019-02-22T00:34:35.132Z,8.36
2019-02-22T00:37:03.909Z,8.36
2019-02-22T00:39:32.967Z,8.32
2019-02-22T00:42:02.260Z,8.28
2019-02-22T00:44:31.220Z,8.27
2019-02-22T00:47:00.421Z,8.33
2019-02-22T00:49:29.163Z,8.26
2019-02-22T00:51:58.098Z,8.18
2019-02-22T00:54:27.040Z,8.29
2019-02-22T00:56:55.941Z,8.23
2019-02-22T00:59:24.609Z,8.24
2019-02-22T01:01:53.275Z,8.16
2019-02-22T01:04:22.456Z,8.28
2019-02-22T01:06:51.123Z,8.32
2019-02-22T01:09:19.797Z,8.37
2019-02-22T01:11:48.707Z,8.34
2019-02-22T01:14:17.940Z,8.29
2019-02-22T01:16:46.616Z,8.37
2019-02-22T01:19:15.281Z,8.37
2019-02-22T01:21:43.971Z,8.27
2019-02-22T01:24:12.696Z,8.39
2019-02-22T01:26:41.695Z,8.26
2019-02-22T01:29:10.720Z,8.31
2019-02-22T01:31:39.667Z,8.24
2019-02-22T01:34:08.324Z,8.24
2019-02-22T01:36:37.001Z,8.27
2019-02-22T01:39:06.587Z,8.09
2019-02-22T01:41:35.277Z,8.19
2019-02-22T01:44:04.226Z,8.11
2019-02-22T01:46:32.927Z,8.23
2019-02-22T01:49:01.598Z,8.20
2019-02-22T01:51:30.601Z,8.19
2019-02-22T01:53:59.789Z,8.15
2019-02-22T01:56:28.777Z,8.13
2019-02-22T01:58:57.471Z,8.02
2019-02-22T02:01:26.667Z,7.96
2019-02-22T02:03:55.639Z,7.93
2019-02-22T02:06:24.958Z,8.03
2019-02-22T02:08:54.026Z,8.11
2019-02-22T02:11:23.012Z,8.11
2019-02-22T02:13:51.736Z,8.19
2019-02-22T02:16:20.413Z,8.09
2019-02-22T02:18:49.131Z,8.31
2019-02-22T02:21:18.106Z,8.29
2019-02-22T02:23:46.865Z,8.09
2019-02-22T02:26:15.576Z,8.23
2019-02-22T02:28:44.255Z,8.08
2019-02-22T02:31:13.035Z,8.18
2019-02-22T02:33:41.691Z,8.33
2019-02-22T02:36:10.362Z,8.23
2019-02-22T02:38:39.310Z,8.20
2019-02-22T02:41:11.435Z,8.19
2019-02-22T02:43:39.789Z,8.11
2019-02-22T02:46:08.408Z,8.13
2019-02-22T02:48:37.440Z,8.28
2019-02-22T02:51:06.429Z,8.27
2019-02-22T02:53:35.188Z,8.27
2019-02-22T02:56:04.203Z,8.30
2019-02-22T02:58:33.191Z,8.25
2019-02-22T03:01:01.966Z,8.31
2019-02-22T03:03:31.277Z,8.28
2019-02-22T03:06:17.789Z,8.27
2019-02-22T03:08:47.207Z,8.25
2019-02-22T03:11:20.542Z,8.26
2019-02-22T03:13:46.895Z,8.19
2019-02-22T03:16:15.739Z,8.15
2019-02-22T03:18:44.712Z,8.17
2019-02-22T03:21:13.635Z,8.13
2019-02-22T03:23:42.312Z,8.10
2019-02-22T03:26:11.009Z,8.06
2019-02-22T03:28:40.301Z,8.09
2019-02-22T03:31:11.165Z,8.02
2019-02-22T03:33:40.519Z,8.05
2019-02-22T03:36:09.174Z,8.02
2019-02-22T03:38:38.175Z,7.99
2019-02-22T03:41:07.168Z,8.06
2019-02-22T03:43:35.880Z,8.01
2019-02-22T03:46:04.945Z,8.01
2019-02-22T03:48:33.883Z,7.97
2019-02-22T03:51:03.279Z,8.01
2019-02-22T03:53:35.784Z,8.00
2019-02-22T03:56:04.530Z,8.08
2019-02-22T03:58:33.372Z,8.05
2019-02-22T04:01:02.804Z,8.03
2019-02-22T04:03:31.612Z,8.05
2019-02-22T04:06:00.689Z,7.98
2019-02-22T04:08:29.779Z,7.92
2019-02-22T04:10:59.073Z,7.95
2019-02-22T04:13:28.004Z,8.09
2019-02-22T04:15:56.665Z,8.00
2019-02-22T04:18:25.940Z,8.02
2019-02-22T04:20:54.882Z,8.01
2019-02-22T04:23:24.442Z,7.97
2019-02-22T04:25:54.155Z,7.96
2019-02-22T04:28:22.857Z,8.07
2019-02-22T04:30:51.526Z,8.14
2019-02-22T04:33:20.526Z,8.11
2019-02-22T04:35:49.187Z,7.99
2019-02-22T04:38:17.872Z,7.98
2019-02-22T04:40:46.912Z,8.09
2019-02-22T04:43:15.927Z,8.02
2019-02-22T04:45:44.669Z,8.11
2019-02-22T04:48:13.657Z,8.09
2019-02-22T04:50:42.409Z,8.07
2019-02-22T04:53:11.727Z,8.07
2019-02-22T04:55:40.733Z,8.13
2019-02-22T04:58:11.591Z,8.13
2019-02-22T05:00:40.567Z,8.20
2019-02-22T05:03:09.251Z,8.19
2019-02-22T05:05:38.242Z,8.21
2019-02-22T05:08:07.204Z,8.11
2019-02-22T05:10:36.231Z,8.12
2019-02-22T05:13:05.440Z,8.20
2019-02-22T05:15:34.155Z,8.13
2019-02-22T05:18:03.216Z,8.15
2019-02-22T05:20:31.987Z,8.15
2019-02-22T05:23:04.387Z,8.10
2019-02-22T05:25:31.514Z,8.06
2019-02-22T05:28:00.191Z,8.00
2019-02-22T05:30:29.502Z,7.97
2019-02-22T05:32:58.561Z,8.03
2019-02-22T05:35:27.259Z,8.11
2019-02-22T05:37:56.272Z,8.09
2019-02-22T05:40:27.138Z,8.06
2019-02-22T05:42:55.809Z,8.00
2019-02-22T05:45:24.529Z,7.93
2019-02-22T05:47:53.163Z,7.96
2019-02-22T05:50:21.857Z,8.00
2019-02-22T05:52:50.847Z,7.97
2019-02-22T05:55:19.773Z,8.10
2019-02-22T05:57:48.713Z,8.10
2019-02-22T06:00:18.343Z,8.13
2019-02-22T06:02:47.272Z,8.08
2019-02-22T06:05:16.112Z,8.08
2019-02-22T06:07:44.807Z,8.07
2019-02-22T06:10:13.491Z,7.99
2019-02-22T06:12:42.169Z,7.96
2019-02-22T06:15:11.003Z,8.11
2019-02-22T06:17:40.510Z,8.13
2019-02-22T06:20:10.877Z,8.11
2019-02-22T06:22:40.187Z,7.96
2019-02-22T06:25:09.495Z,8.09
2019-02-22T06:27:39.396Z,8.13
2019-02-22T06:30:08.583Z,8.08
2019-02-22T06:32:37.595Z,8.19
2019-02-22T06:35:08.830Z,8.24
2019-02-22T06:37:36.831Z,8.24
2019-02-22T06:40:05.909Z,8.26
2019-02-22T06:42:45.190Z,8.14
2019-02-22T06:45:06.195Z,8.06
2019-02-22T06:47:34.950Z,8.02
2019-02-22T06:50:03.725Z,8.12
2019-02-22T06:52:32.708Z,8.14
2019-02-22T06:55:01.399Z,8.11
2019-02-22T06:57:30.076Z,8.08
2019-02-22T06:59:58.771Z,8.12
2019-02-22T07:02:27.905Z,8.16
2019-02-22T07:04:56.600Z,8.27
2019-02-22T07:07:25.984Z,8.19
2019-02-22T07:09:54.939Z,8.07
2019-02-22T07:12:36.287Z,8.06
2019-02-22T07:15:05.909Z,8.03
2019-02-22T07:17:34.654Z,8.02
2019-02-22T07:20:04.022Z,8.01
2019-02-22T07:22:33.021Z,7.99
2019-02-22T07:25:01.731Z,8.07
2019-02-22T07:27:30.393Z,8.07
2019-02-22T07:29:59.070Z,8.10
2019-02-22T07:32:28.042Z,7.99
2019-02-22T07:34:56.714Z,8.03
2019-02-22T07:37:25.389Z,8.05
2019-02-22T07:39:54.594Z,8.05
2019-02-22T07:42:25.991Z,7.92
2019-02-22T07:44:54.974Z,7.95
2019-02-22T07:47:23.691Z,8.12
2019-02-22T07:49:52.620Z,8.09
2019-02-22T07:52:21.321Z,8.11
2019-02-22T07:54:49.983Z,8.02
2019-02-22T07:57:18.679Z,8.02
2019-02-22T07:59:47.371Z,8.08
2019-02-22T08:02:16.388Z,8.12
2019-02-22T08:04:45.384Z,8.20
2019-02-22T08:07:14.382Z,8.28
2019-02-22T08:09:43.366Z,8.15
2019-02-22T08:12:12.052Z,8.17
2019-02-22T08:14:40.992Z,8.03
2019-02-22T08:17:09.993Z,8.07
2019-02-22T08:19:38.678Z,8.07
2019-02-22T08:22:08.016Z,8.08
2019-02-22T08:24:36.747Z,8.11
2019-02-22T08:27:05.435Z,8.09
2019-02-22T08:29:34.110Z,8.07
2019-02-22T08:32:03.181Z,8.12
2019-02-22T08:34:31.858Z,8.16
2019-02-22T08:37:00.555Z,8.10
2019-02-22T08:39:30.084Z,8.14
2019-02-22T08:41:59.055Z,8.11
2019-02-22T08:44:28.156Z,7.99
2019-02-22T08:46:56.838Z,8.01
2019-02-22T08:49:25.521Z,8.11
2019-02-22T08:51:54.527Z,8.19
2019-02-22T08:54:23.556Z,8.14
2019-02-22T08:56:52.790Z,8.03
2019-02-22T08:59:22.365Z,7.95
2019-02-22T09:01:51.041Z,8.06
2019-02-22T09:04:20.066Z,8.19
2019-02-22T09:06:48.764Z,8.09
2019-02-22T09:09:18.052Z,8.08
2019-02-22T09:11:46.746Z,8.10
2019-02-22T09:14:16.050Z,8.18
2019-02-22T09:16:44.721Z,8.34
2019-02-22T09:19:13.410Z,8.35
2019-02-22T09:21:42.414Z,8.36
2019-02-22T09:24:11.115Z,8.39
2019-02-22T09:26:39.785Z,8.46
2019-02-22T09:29:08.708Z,8.48
2019-02-22T09:31:37.387Z,8.59
2019-02-22T09:34:06.066Z,8.69
2019-02-22T09:36:34.755Z,8.69
2019-02-22T09:39:05.104Z,8.76
2019-02-22T09:41:33.797Z,8.96
2019-02-22T09:44:02.476Z,9.04
2019-02-22T09:46:31.726Z,9.08
2019-02-22T09:49:00.431Z,9.04
2019-02-22T09:51:29.086Z,9.09
2019-02-22T09:53:57.784Z,9.16
2019-02-22T09:56:26.740Z,9.09
2019-02-22T09:58:55.776Z,8.99
2019-02-22T10:01:24.448Z,8.79
2019-02-22T10:03:53.149Z,8.73
2019-02-22T10:06:21.838Z,8.73
2019-02-22T10:08:50.822Z,7.93
2019-02-22T10:11:20.534Z,8.73
2019-02-22T10:13:49.285Z,8.73
2019-02-22T10:16:18.281Z,8.78
2019-02-22T10:18:47.061Z,8.84
2019-02-22T10:21:16.093Z,8.77
2019-02-22T10:23:44.816Z,8.86
2019-02-22T10:26:13.775Z,8.85
2019-02-22T10:28:42.753Z,8.75
2019-02-22T10:31:12.059Z,8.71
2019-02-22T10:33:40.806Z,8.78
2019-02-22T10:36:09.855Z,8.72
2019-02-22T10:38:39.111Z,8.74
2019-02-22T10:41:09.946Z,8.69
2019-02-22T10:43:38.971Z,8.66
2019-02-22T10:46:07.657Z,8.80
2019-02-22T10:48:36.634Z,8.67
2019-02-22T10:51:05.332Z,8.72
2019-02-22T10:53:34.018Z,8.60
2019-02-22T10:56:03.219Z,8.74
2019-02-22T10:58:31.917Z,8.75
2019-02-22T11:01:02.703Z,8.67
2019-02-22T11:03:33.378Z,8.76
2019-02-22T11:06:02.378Z,8.72
2019-02-22T11:08:31.099Z,8.72
2019-02-22T11:10:59.780Z,8.66
2019-02-22T11:13:28.559Z,8.69
2019-02-22T11:15:57.228Z,8.64
2019-02-22T11:18:25.987Z,8.65
2019-02-22T11:20:54.675Z,8.41
2019-02-22T11:23:23.418Z,8.52
2019-02-22T11:25:52.468Z,8.41
2019-02-22T11:28:21.190Z,8.34
2019-02-22T11:30:50.222Z,8.30
2019-02-22T11:33:18.979Z,8.39
2019-02-22T11:35:47.720Z,8.59
2019-02-22T11:38:16.387Z,8.49
2019-02-22T11:40:45.709Z,8.69
2019-02-22T11:43:14.392Z,8.70
2019-02-22T11:45:43.461Z,8.77
2019-02-22T11:48:12.155Z,8.69
2019-02-22T11:50:40.855Z,8.72
2019-02-22T11:53:09.539Z,8.79
2019-02-22T11:55:38.633Z,8.67
2019-02-22T11:58:07.382Z,8.59
2019-02-22T12:00:36.407Z,8.49
2019-02-22T12:03:21.282Z,8.59
2019-02-22T12:05:35.777Z,8.42
2019-02-22T12:08:04.482Z,8.52
2019-02-22T12:10:33.154Z,8.51
2019-02-22T12:13:02.108Z,8.43
2019-02-22T12:15:31.575Z,8.51
2019-02-22T12:18:00.629Z,8.62
2019-02-22T12:20:29.657Z,8.76
2019-02-22T12:22:58.690Z,8.71
2019-02-22T12:25:27.378Z,8.64
2019-02-22T12:27:56.406Z,8.47
2019-02-22T12:30:25.780Z,8.44
2019-02-22T12:32:54.972Z,8.36
2019-02-22T12:35:23.730Z,8.32
2019-02-22T12:37:52.526Z,8.28
2019-02-22T12:40:21.285Z,8.31
2019-02-22T12:42:49.963Z,8.53
2019-02-22T12:45:19.326Z,8.54
2019-02-22T12:47:47.970Z,8.67
2019-02-22T12:50:16.647Z,8.74
2019-02-22T12:52:45.562Z,8.73
2019-02-22T12:55:14.495Z,8.65
2019-02-22T12:57:43.972Z,8.65
2019-02-22T13:00:13.406Z,8.81
2019-02-22T13:02:42.353Z,8.73
2019-02-22T13:05:13.343Z,8.73
2019-02-22T13:07:42.064Z,8.77
2019-02-22T13:10:11.783Z,8.79
2019-02-22T13:12:40.499Z,8.70
2019-02-22T13:15:13.937Z,8.69
2019-02-22T13:17:41.414Z,8.66
2019-02-22T13:20:10.537Z,8.52
2019-02-22T13:22:39.621Z,8.68
2019-02-22T13:25:08.532Z,8.55
2019-02-22T13:27:37.606Z,8.38
2019-02-22T13:30:07.436Z,8.11
2019-02-22T13:32:36.266Z,8.10
2019-02-22T13:35:05.359Z,7.93
2019-02-22T13:37:34.132Z,7.68
2019-02-22T13:40:03.151Z,7.65
2019-02-22T13:42:31.847Z,7.58
2019-02-22T13:45:01.982Z,7.57
2019-02-22T13:47:31.021Z,7.44
2019-02-22T13:50:00.617Z,7.48
2019-02-22T13:52:30.018Z,7.37
2019-02-22T13:54:58.670Z,7.46
2019-02-22T13:57:30.358Z,7.43
2019-02-22T13:59:59.142Z,7.61
2019-02-22T14:02:30.600Z,7.47
2019-02-22T14:04:59.278Z,7.35
2019-02-22T14:07:27.992Z,7.28
2019-02-22T14:09:56.680Z,7.27
2019-02-22T14:12:25.357Z,7.17
2019-02-22T14:14:56.688Z,7.10
2019-02-22T14:17:25.665Z,7.01
2019-02-22T14:19:54.589Z,6.86
2019-02-22T14:22:23.557Z,6.72
2019-02-22T14:24:52.863Z,6.59
2019-02-22T14:27:21.539Z,6.55
2019-02-22T14:29:50.192Z,6.50
2019-02-22T14:32:18.885Z,6.52
2019-02-22T14:34:47.640Z,6.59
2019-02-22T14:37:16.371Z,6.49
2019-02-22T14:39:45.349Z,6.56
2019-02-22T14:42:14.058Z,6.57
2019-02-22T14:44:43.024Z,6.46
2019-02-22T14:47:11.990Z,6.51
2019-02-22T14:49:40.644Z,6.51
2019-02-22T14:52:09.318Z,6.46
2019-02-22T14:54:38.216Z,6.56
2019-02-22T14:57:06.873Z,6.43
2019-02-22T14:59:35.534Z,6.39
2019-02-22T15:02:04.591Z,6.43
2019-02-22T15:04:36.165Z,6.40
2019-02-22T15:07:04.321Z,6.49
2019-02-22T15:09:32.975Z,6.27
2019-02-22T15:12:01.638Z,6.23
2019-02-22T15:14:30.649Z,6.18
2019-02-22T15:17:27.807Z,6.23
2019-02-22T15:19:56.459Z,6.18
2019-02-22T15:22:25.125Z,6.34
2019-02-22T15:24:54.371Z,6.39
2019-02-22T15:27:23.382Z,6.35
2019-02-22T15:29:52.082Z,6.29
2019-02-22T15:32:20.708Z,6.28
2019-02-22T15:34:49.376Z,6.23
2019-02-22T15:37:18.624Z,6.08
2019-02-22T15:39:48.901Z,5.99
2019-02-22T15:42:17.757Z,6.08
2019-02-22T15:44:46.702Z,6.08
2019-02-22T15:47:15.644Z,6.06
2019-02-22T15:49:44.313Z,5.99
2019-02-22T15:52:13.046Z,5.81
2019-02-22T15:54:41.712Z,5.76
2019-02-22T15:57:10.363Z,5.77
2019-02-22T15:59:39.298Z,5.85
2019-02-22T16:02:07.953Z,6.01
2019-02-22T16:04:55.655Z,5.87
2019-02-22T16:07:24.435Z,5.75
2019-02-22T16:09:53.106Z,5.77
2019-02-22T16:12:22.030Z,5.72
2019-02-22T16:14:50.690Z,5.61
2019-02-22T16:17:19.333Z,5.67
2019-02-22T16:19:51.280Z,5.68
2019-02-22T16:22:19.329Z,5.79
2019-02-22T16:24:48.323Z,5.84
2019-02-22T16:27:17.264Z,5.82
2019-02-22T16:29:46.211Z,5.77
2019-02-22T16:32:15.131Z,5.79
2019-02-22T16:34:46.615Z,5.63
2019-02-22T16:37:14.575Z,5.57
2019-02-22T16:39:43.919Z,5.70
2019-02-22T16:42:12.570Z,5.70
2019-02-22T16:44:41.299Z,5.53
2019-02-22T16:47:10.182Z,5.48
2019-02-22T16:49:41.098Z,5.46
2019-02-22T16:52:09.840Z,5.42
2019-02-22T16:54:40.667Z,5.45
2019-02-22T16:57:09.582Z,5.45
2019-02-22T16:59:38.277Z,5.25
2019-02-22T17:02:07.163Z,5.28
2019-02-22T17:04:36.720Z,5.29
2019-02-22T17:07:05.663Z,5.36
2019-02-22T17:09:34.334Z,5.26
2019-02-22T17:12:06.543Z,5.23
2019-02-22T17:14:39.184Z,5.17
2019-02-22T17:17:10.150Z,5.14
2019-02-22T17:19:38.834Z,5.23
2019-02-22T17:22:09.662Z,5.23
2019-02-22T17:24:38.281Z,5.16
2019-02-22T17:27:07.286Z,5.03
2019-02-22T17:29:35.946Z,4.99
2019-02-22T17:32:04.612Z,5.02
2019-02-22T17:34:33.293Z,5.02
2019-02-22T17:37:02.584Z,5.09
2019-02-22T17:39:31.258Z,5.02
2019-02-22T17:42:00.250Z,4.95
2019-02-22T17:44:30.308Z,4.89
2019-02-22T17:46:58.966Z,4.79
2019-02-22T17:49:27.893Z,4.92
2019-02-22T17:51:56.956Z,4.80
2019-02-22T17:54:25.890Z,4.76
2019-02-22T17:56:55.116Z,4.73
2019-02-22T17:59:24.498Z,4.67
2019-02-22T18:01:53.187Z,4.68
2019-02-22T18:04:22.087Z,4.62
2019-02-22T18:06:50.768Z,4.73
2019-02-22T18:09:19.894Z,4.58
2019-02-22T18:11:48.827Z,4.65
2019-02-22T18:14:17.486Z,4.82
2019-02-22T18:16:46.242Z,4.74
2019-02-22T18:19:15.236Z,4.69
2019-02-22T18:21:44.016Z,4.79
2019-02-22T18:24:12.681Z,4.58
2019-02-22T18:26:41.408Z,4.57
2019-02-22T18:29:10.148Z,4.57
2019-02-22T18:31:39.105Z,4.50
2019-02-22T18:34:07.858Z,4.52
2019-02-22T18:36:37.082Z,4.32
2019-02-22T18:39:07.520Z,4.17
2019-02-22T18:41:36.454Z,4.17
2019-02-22T18:44:05.674Z,4.48
2019-02-22T18:46:34.628Z,4.49
2019-02-22T18:49:03.284Z,4.43
2019-02-22T18:51:32.211Z,4.31
2019-02-22T18:54:00.893Z,4.21
2019-02-22T18:56:30.055Z,4.25
2019-02-22T18:58:59.013Z,4.24
2019-02-22T19:01:27.702Z,4.07
2019-02-22T19:03:56.372Z,4.06
2019-02-22T19:06:25.057Z,4.03
2019-02-22T19:08:54.338Z,4.03
2019-02-22T19:11:23.023Z,4.07
2019-02-22T19:13:52.255Z,4.22
2019-02-22T19:16:20.995Z,4.13
2019-02-22T19:18:49.660Z,3.99
2019-02-22T19:21:18.319Z,3.91
2019-02-22T19:23:47.275Z,3.96
2019-02-22T19:26:16.283Z,4.06
2019-02-22T19:28:45.269Z,4.25
2019-02-22T19:31:14.237Z,4.06
2019-02-22T19:33:43.461Z,4.07
2019-02-22T19:36:12.140Z,4.13
2019-02-22T19:38:40.815Z,3.95
2019-02-22T19:41:09.750Z,4.17
2019-02-22T19:43:40.783Z,4.30
2019-02-22T19:46:10.904Z,4.17
2019-02-22T19:48:39.584Z,4.08
2019-02-22T19:51:08.272Z,4.13
2019-02-22T19:53:37.351Z,4.16
2019-02-22T19:56:06.051Z,4.15
2019-02-22T19:58:35.015Z,4.15
2019-02-22T20:01:03.665Z,3.99
2019-02-22T20:03:32.347Z,3.95
2019-02-22T20:06:01.008Z,3.87
2019-02-22T20:08:29.673Z,4.02
2019-02-22T20:10:58.361Z,4.03
2019-02-22T20:13:27.061Z,4.19
2019-02-22T20:15:56.219Z,4.18
2019-02-22T20:18:25.155Z,4.21
2019-02-22T20:20:54.050Z,4.19
2019-02-22T20:23:23.228Z,4.22
2019-02-22T20:25:51.936Z,4.09
2019-02-22T20:28:20.905Z,4.09
2019-02-22T20:30:49.973Z,3.96
2019-02-22T20:33:18.647Z,3.86
2019-02-22T20:35:47.636Z,3.92
2019-02-22T20:38:16.379Z,3.91
2019-02-22T20:40:45.599Z,4.03
2019-02-22T20:43:14.272Z,3.97
2019-02-22T20:45:42.936Z,4.04
2019-02-22T20:48:11.984Z,3.98
2019-02-22T20:50:40.646Z,3.86
2019-02-22T20:53:09.313Z,3.98
2019-02-22T20:55:38.020Z,3.98
2019-02-22T20:58:06.657Z,3.93
2019-02-22T21:00:35.344Z,3.90
2019-02-22T21:03:04.458Z,3.83
2019-02-22T21:05:33.147Z,3.86
2019-02-22T21:08:01.830Z,4.02
2019-02-22T21:10:30.998Z,3.87
2019-02-22T21:13:00.231Z,3.94
2019-02-22T21:15:28.994Z,4.18
2019-02-22T21:17:57.648Z,3.99
2019-02-22T21:20:26.549Z,3.88
2019-02-22T21:22:55.745Z,3.83
2019-02-22T21:25:24.439Z,3.85
2019-02-22T21:27:53.119Z,3.91
2019-02-22T21:30:25.272Z,4.12
2019-02-22T21:32:54.253Z,4.04
2019-02-22T21:35:22.941Z,3.99
2019-02-22T21:37:51.610Z,3.92
2019-02-22T21:40:20.294Z,3.95
2019-02-22T21:42:49.202Z,3.74
2019-02-22T21:45:17.966Z,3.72
2019-02-22T21:47:54.656Z,3.69
2019-02-22T21:50:17.953Z,3.62
2019-02-22T21:52:47.133Z,3.71
2019-02-22T21:55:15.842Z,3.72
2019-02-22T21:57:44.628Z,3.75
2019-02-22T22:00:17.631Z,3.80
2019-02-22T22:02:46.610Z,3.87
2019-02-22T22:05:15.290Z,3.95
2019-02-22T22:07:43.971Z,3.98
2019-02-22T22:10:12.645Z,4.02
2019-02-22T22:12:41.655Z,4.04
2019-02-22T22:15:10.902Z,4.06
2019-02-22T22:17:39.922Z,4.08
2019-02-22T22:20:09.061Z,4.09
2019-02-22T22:22:37.896Z,4.06
2019-02-22T22:25:06.946Z,4.19
2019-02-22T22:27:37.530Z,4.18
2019-02-22T22:30:06.956Z,4.26
2019-02-22T22:32:36.192Z,4.26
2019-02-22T22:35:05.313Z,4.15
2019-02-22T22:37:34.292Z,4.10
2019-02-22T22:40:02.977Z,4.06
2019-02-22T22:42:31.639Z,4.15
2019-02-22T22:45:01.182Z,4.12
2019-02-22T22:47:29.922Z,4.20
2019-02-22T22:50:01.057Z,4.06
2019-02-22T22:52:30.012Z,4.03
2019-02-22T22:55:01.123Z,4.01
2019-02-22T22:57:29.973Z,4.04
2019-02-22T22:59:59.188Z,4.11
2019-02-22T23:02:28.352Z,4.18
2019-02-22T23:04:57.039Z,4.23
2019-02-22T23:07:25.840Z,3.72
2019-02-22T23:09:54.872Z,4.06
2019-02-22T23:12:23.944Z,3.99
2019-02-22T23:14:52.898Z,4.05
2019-02-22T23:17:21.807Z,4.01
2019-02-22T23:19:50.801Z,3.95
2019-02-22T23:22:19.437Z,3.93
2019-02-22T23:24:48.130Z,3.95
2019-02-22T23:27:17.042Z,3.95
2019-02-22T23:29:45.804Z,3.94
2019-02-22T23:32:14.712Z,3.93
2019-02-22T23:34:43.991Z,3.92
2019-02-22T23:37:12.705Z,3.94
2019-02-22T23:39:41.438Z,3.98
2019-02-22T23:42:10.373Z,3.97
2019-02-22T23:44:39.359Z,3.98
2019-02-22T23:47:08.365Z,3.85
2019-02-22T23:49:37.029Z,3.77
2019-02-22T23:52:05.712Z,3.77
2019-02-22T23:54:34.383Z,3.74
2019-02-22T23:57:03.052Z,3.65
2019-02-22T23:59:32.198Z,3.68
